sensor_id;sensor_type;location;lat;lon;timestamp;P1;durP1;ratioP1;P2;durP2;ratioP2
37273;SDS011;23161;51.250;5.554;2023-06-26T00:01:17;8.40;;;7.05;;
37273;SDS011;23161;51.250;5.554;2023-06-26T00:03:49;7.18;;;6.45;;
37273;SDS011;23161;51.250;5.554;2023-06-26T00:06:15;6.20;;;5.60;;
37273;SDS011;23161;51.250;5.554;2023-06-26T00:08:40;7.05;;;6.25;;
37273;SDS011;23161;51.250;5.554;2023-06-26T00:11:06;8.75;;;6.50;;
37273;SDS011;23161;51.250;5.554;2023-06-26T00:13:33;8.80;;;7.22;;
37273;SDS011;23161;51.250;5.554;2023-06-26T00:15:59;7.90;;;7.18;;
37273;SDS011;23161;51.250;5.554;2023-06-26T00:18:28;6.32;;;5.60;;
37273;SDS011;23161;51.250;5.554;2023-06-26T00:20:54;6.88;;;6.18;;
37273;SDS011;23161;51.250;5.554;2023-06-26T00:23:20;6.28;;;5.68;;
37273;SDS011;23161;51.250;5.554;2023-06-26T00:25:46;6.28;;;5.57;;
37273;SDS011;23161;51.250;5.554;2023-06-26T00:28:12;6.03;;;5.43;;
37273;SDS011;23161;51.250;5.554;2023-06-26T00:30:38;7.45;;;6.65;;
37273;SDS011;23161;51.250;5.554;2023-06-26T00:33:04;6.65;;;5.53;;
37273;SDS011;23161;51.250;5.554;2023-06-26T00:35:30;6.20;;;5.57;;
37273;SDS011;23161;51.250;5.554;2023-06-26T00:37:56;6.45;;;5.85;;
37273;SDS011;23161;51.250;5.554;2023-06-26T00:40:22;8.18;;;5.53;;
37273;SDS011;23161;51.250;5.554;2023-06-26T00:42:48;6.57;;;6.07;;
37273;SDS011;23161;51.250;5.554;2023-06-26T00:45:14;6.05;;;5.55;;
37273;SDS011;23161;51.250;5.554;2023-06-26T00:47:40;6.65;;;6.05;;
37273;SDS011;23161;51.250;5.554;2023-06-26T00:50:06;7.43;;;6.72;;
37273;SDS011;23161;51.250;5.554;2023-06-26T00:52:32;6.97;;;6.38;;
37273;SDS011;23161;51.250;5.554;2023-06-26T00:54:58;6.63;;;6.03;;
37273;SDS011;23161;51.250;5.554;2023-06-26T00:57:25;7.60;;;6.80;;
37273;SDS011;23161;51.250;5.554;2023-06-26T00:59:52;5.45;;;5.00;;
37273;SDS011;23161;51.250;5.554;2023-06-26T01:02:20;6.68;;;6.07;;
37273;SDS011;23161;51.250;5.554;2023-06-26T01:04:47;6.05;;;5.55;;
37273;SDS011;23161;51.250;5.554;2023-06-26T01:07:17;7.18;;;6.47;;
37273;SDS011;23161;51.250;5.554;2023-06-26T01:09:48;7.65;;;6.00;;
37273;SDS011;23161;51.250;5.554;2023-06-26T01:12:14;6.72;;;6.13;;
37273;SDS011;23161;51.250;5.554;2023-06-26T01:14:40;6.88;;;6.25;;
37273;SDS011;23161;51.250;5.554;2023-06-26T01:17:07;6.13;;;5.60;;
37273;SDS011;23161;51.250;5.554;2023-06-26T01:19:37;6.28;;;5.78;;
37273;SDS011;23161;51.250;5.554;2023-06-26T01:25:01;5.93;;;5.43;;
37273;SDS011;23161;51.250;5.554;2023-06-26T01:27:37;6.65;;;5.63;;
37273;SDS011;23161;51.250;5.554;2023-06-26T01:30:03;5.95;;;5.32;;
37273;SDS011;23161;51.250;5.554;2023-06-26T01:32:31;6.90;;;6.18;;
37273;SDS011;23161;51.250;5.554;2023-06-26T01:34:58;5.38;;;4.60;;
37273;SDS011;23161;51.250;5.554;2023-06-26T01:37:28;5.60;;;5.10;;
37273;SDS011;23161;51.250;5.554;2023-06-26T01:39:54;6.03;;;5.47;;
37273;SDS011;23161;51.250;5.554;2023-06-26T01:42:20;6.32;;;5.72;;
37273;SDS011;23161;51.250;5.554;2023-06-26T01:44:45;6.22;;;4.75;;
37273;SDS011;23161;51.250;5.554;2023-06-26T01:47:14;4.65;;;4.22;;
37273;SDS011;23161;51.250;5.554;2023-06-26T01:49:55;5.05;;;4.60;;
37273;SDS011;23161;51.250;5.554;2023-06-26T01:52:29;5.70;;;4.93;;
37273;SDS011;23161;51.250;5.554;2023-06-26T01:57:48;5.47;;;4.83;;
37273;SDS011;23161;51.250;5.554;2023-06-26T02:00:16;4.63;;;4.22;;
37273;SDS011;23161;51.250;5.554;2023-06-26T02:02:44;5.28;;;4.10;;
37273;SDS011;23161;51.250;5.554;2023-06-26T02:05:12;4.40;;;4.03;;
37273;SDS011;23161;51.250;5.554;2023-06-26T02:07:39;7.10;;;4.47;;
37273;SDS011;23161;51.250;5.554;2023-06-26T02:10:05;5.13;;;4.20;;
37273;SDS011;23161;51.250;5.554;2023-06-26T02:12:32;5.63;;;3.88;;
37273;SDS011;23161;51.250;5.554;2023-06-26T02:14:58;7.10;;;3.78;;
37273;SDS011;23161;51.250;5.554;2023-06-26T02:17:24;4.28;;;3.63;;
37273;SDS011;23161;51.250;5.554;2023-06-26T02:19:53;5.03;;;4.50;;
37273;SDS011;23161;51.250;5.554;2023-06-26T02:22:19;4.00;;;3.50;;
37273;SDS011;23161;51.250;5.554;2023-06-26T02:24:46;3.90;;;3.60;;
37273;SDS011;23161;51.250;5.554;2023-06-26T02:27:13;7.60;;;4.45;;
37273;SDS011;23161;51.250;5.554;2023-06-26T02:29:39;10.02;;;4.80;;
37273;SDS011;23161;51.250;5.554;2023-06-26T02:32:07;6.22;;;4.45;;
37273;SDS011;23161;51.250;5.554;2023-06-26T02:34:34;5.40;;;3.65;;
37273;SDS011;23161;51.250;5.554;2023-06-26T02:37:01;3.28;;;2.97;;
37273;SDS011;23161;51.250;5.554;2023-06-26T02:39:27;4.07;;;3.78;;
37273;SDS011;23161;51.250;5.554;2023-06-26T02:41:54;4.35;;;3.30;;
37273;SDS011;23161;51.250;5.554;2023-06-26T02:44:21;7.60;;;3.25;;
37273;SDS011;23161;51.250;5.554;2023-06-26T02:46:47;4.03;;;3.70;;
37273;SDS011;23161;51.250;5.554;2023-06-26T02:49:14;3.53;;;3.10;;
37273;SDS011;23161;51.250;5.554;2023-06-26T02:51:40;6.03;;;3.92;;
37273;SDS011;23161;51.250;5.554;2023-06-26T02:54:13;4.40;;;3.45;;
37273;SDS011;23161;51.250;5.554;2023-06-26T02:56:41;5.22;;;3.78;;
37273;SDS011;23161;51.250;5.554;2023-06-26T02:59:08;4.32;;;3.35;;
37273;SDS011;23161;51.250;5.554;2023-06-26T03:01:34;4.20;;;3.38;;
37273;SDS011;23161;51.250;5.554;2023-06-26T03:03:59;8.52;;;4.65;;
37273;SDS011;23161;51.250;5.554;2023-06-26T03:06:26;5.03;;;3.63;;
37273;SDS011;23161;51.250;5.554;2023-06-26T03:08:53;4.20;;;3.55;;
37273;SDS011;23161;51.250;5.554;2023-06-26T03:11:19;5.15;;;3.55;;
37273;SDS011;23161;51.250;5.554;2023-06-26T03:13:45;4.45;;;3.75;;
37273;SDS011;23161;51.250;5.554;2023-06-26T03:16:11;4.60;;;4.10;;
37273;SDS011;23161;51.250;5.554;2023-06-26T03:18:37;4.25;;;3.75;;
37273;SDS011;23161;51.250;5.554;2023-06-26T03:21:04;4.53;;;4.10;;
37273;SDS011;23161;51.250;5.554;2023-06-26T03:23:30;3.30;;;3.00;;
37273;SDS011;23161;51.250;5.554;2023-06-26T03:25:56;3.72;;;3.42;;
37273;SDS011;23161;51.250;5.554;2023-06-26T03:28:28;4.13;;;3.60;;
37273;SDS011;23161;51.250;5.554;2023-06-26T03:30:54;4.22;;;3.58;;
37273;SDS011;23161;51.250;5.554;2023-06-26T03:33:20;3.83;;;3.33;;
37273;SDS011;23161;51.250;5.554;2023-06-26T03:35:45;8.15;;;3.85;;
37273;SDS011;23161;51.250;5.554;2023-06-26T03:38:13;3.85;;;3.45;;
37273;SDS011;23161;51.250;5.554;2023-06-26T03:40:40;4.15;;;3.53;;
37273;SDS011;23161;51.250;5.554;2023-06-26T03:43:06;18.70;;;3.83;;
37273;SDS011;23161;51.250;5.554;2023-06-26T03:45:46;5.72;;;3.28;;
37273;SDS011;23161;51.250;5.554;2023-06-26T03:48:12;4.55;;;3.95;;
37273;SDS011;23161;51.250;5.554;2023-06-26T03:50:39;8.40;;;5.38;;
37273;SDS011;23161;51.250;5.554;2023-06-26T03:53:04;4.28;;;3.90;;
37273;SDS011;23161;51.250;5.554;2023-06-26T03:55:30;3.88;;;3.28;;
37273;SDS011;23161;51.250;5.554;2023-06-26T03:57:57;5.75;;;3.70;;
37273;SDS011;23161;51.250;5.554;2023-06-26T04:00:23;4.38;;;3.13;;
37273;SDS011;23161;51.250;5.554;2023-06-26T04:02:49;3.50;;;3.20;;
37273;SDS011;23161;51.250;5.554;2023-06-26T04:05:16;5.22;;;4.72;;
37273;SDS011;23161;51.250;5.554;2023-06-26T04:07:42;6.18;;;3.47;;
37273;SDS011;23161;51.250;5.554;2023-06-26T04:10:08;6.60;;;4.13;;
37273;SDS011;23161;51.250;5.554;2023-06-26T04:12:34;7.63;;;3.33;;
37273;SDS011;23161;51.250;5.554;2023-06-26T04:15:00;4.15;;;3.75;;
37273;SDS011;23161;51.250;5.554;2023-06-26T04:17:26;4.70;;;3.47;;
37273;SDS011;23161;51.250;5.554;2023-06-26T04:19:51;6.00;;;3.58;;
37273;SDS011;23161;51.250;5.554;2023-06-26T04:22:17;5.72;;;4.45;;
37273;SDS011;23161;51.250;5.554;2023-06-26T04:24:43;3.63;;;3.33;;
37273;SDS011;23161;51.250;5.554;2023-06-26T04:27:11;4.80;;;3.28;;
37273;SDS011;23161;51.250;5.554;2023-06-26T04:29:39;4.10;;;3.38;;
37273;SDS011;23161;51.250;5.554;2023-06-26T04:32:04;4.93;;;3.05;;
37273;SDS011;23161;51.250;5.554;2023-06-26T04:34:32;6.22;;;4.13;;
37273;SDS011;23161;51.250;5.554;2023-06-26T04:36:59;6.25;;;3.88;;
37273;SDS011;23161;51.250;5.554;2023-06-26T04:39:25;4.80;;;4.20;;
37273;SDS011;23161;51.250;5.554;2023-06-26T04:41:51;8.30;;;4.35;;
37273;SDS011;23161;51.250;5.554;2023-06-26T04:44:16;5.05;;;3.33;;
37273;SDS011;23161;51.250;5.554;2023-06-26T04:46:42;7.68;;;4.47;;
37273;SDS011;23161;51.250;5.554;2023-06-26T04:49:08;4.65;;;3.92;;
37273;SDS011;23161;51.250;5.554;2023-06-26T04:51:35;6.85;;;4.53;;
37273;SDS011;23161;51.250;5.554;2023-06-26T04:54:08;6.65;;;3.58;;
37273;SDS011;23161;51.250;5.554;2023-06-26T04:56:35;9.18;;;3.90;;
37273;SDS011;23161;51.250;5.554;2023-06-26T04:59:01;7.15;;;3.70;;
37273;SDS011;23161;51.250;5.554;2023-06-26T05:01:28;4.72;;;3.38;;
37273;SDS011;23161;51.250;5.554;2023-06-26T05:04:01;4.55;;;4.10;;
37273;SDS011;23161;51.250;5.554;2023-06-26T05:06:27;5.60;;;3.15;;
37273;SDS011;23161;51.250;5.554;2023-06-26T05:08:53;5.97;;;4.47;;
37273;SDS011;23161;51.250;5.554;2023-06-26T05:11:19;4.32;;;3.60;;
37273;SDS011;23161;51.250;5.554;2023-06-26T05:13:45;8.23;;;4.15;;
37273;SDS011;23161;51.250;5.554;2023-06-26T05:16:10;10.30;;;4.50;;
37273;SDS011;23161;51.250;5.554;2023-06-26T05:18:37;4.55;;;4.15;;
37273;SDS011;23161;51.250;5.554;2023-06-26T05:21:03;10.73;;;4.00;;
37273;SDS011;23161;51.250;5.554;2023-06-26T05:23:32;10.43;;;4.55;;
37273;SDS011;23161;51.250;5.554;2023-06-26T05:26:00;5.50;;;3.50;;
37273;SDS011;23161;51.250;5.554;2023-06-26T05:28:27;10.65;;;4.57;;
37273;SDS011;23161;51.250;5.554;2023-06-26T05:30:56;7.20;;;4.70;;
37273;SDS011;23161;51.250;5.554;2023-06-26T05:33:26;13.20;;;4.18;;
37273;SDS011;23161;51.250;5.554;2023-06-26T05:35:52;8.07;;;4.00;;
37273;SDS011;23161;51.250;5.554;2023-06-26T05:38:19;8.98;;;3.60;;
37273;SDS011;23161;51.250;5.554;2023-06-26T05:40:45;8.45;;;4.03;;
37273;SDS011;23161;51.250;5.554;2023-06-26T05:43:11;6.20;;;3.75;;
37273;SDS011;23161;51.250;5.554;2023-06-26T05:45:38;6.85;;;2.80;;
37273;SDS011;23161;51.250;5.554;2023-06-26T05:48:04;6.88;;;3.88;;
37273;SDS011;23161;51.250;5.554;2023-06-26T05:50:30;8.77;;;3.70;;
37273;SDS011;23161;51.250;5.554;2023-06-26T05:52:56;7.32;;;3.42;;
37273;SDS011;23161;51.250;5.554;2023-06-26T05:55:22;8.23;;;2.70;;
37273;SDS011;23161;51.250;5.554;2023-06-26T05:57:49;10.00;;;3.55;;
37273;SDS011;23161;51.250;5.554;2023-06-26T06:00:16;7.50;;;3.42;;
37273;SDS011;23161;51.250;5.554;2023-06-26T06:02:42;8.73;;;3.33;;
37273;SDS011;23161;51.250;5.554;2023-06-26T06:05:08;7.20;;;4.30;;
37273;SDS011;23161;51.250;5.554;2023-06-26T06:07:35;4.50;;;2.30;;
37273;SDS011;23161;51.250;5.554;2023-06-26T06:10:01;10.40;;;3.47;;
37273;SDS011;23161;51.250;5.554;2023-06-26T06:12:28;8.63;;;3.00;;
37273;SDS011;23161;51.250;5.554;2023-06-26T06:14:55;6.30;;;2.83;;
37273;SDS011;23161;51.250;5.554;2023-06-26T06:17:21;10.20;;;2.60;;
37273;SDS011;23161;51.250;5.554;2023-06-26T06:19:47;4.82;;;2.72;;
37273;SDS011;23161;51.250;5.554;2023-06-26T06:22:13;16.60;;;3.95;;
37273;SDS011;23161;51.250;5.554;2023-06-26T06:24:41;3.60;;;2.40;;
37273;SDS011;23161;51.250;5.554;2023-06-26T06:27:07;6.00;;;2.20;;
37273;SDS011;23161;51.250;5.554;2023-06-26T06:29:33;10.15;;;3.78;;
37273;SDS011;23161;51.250;5.554;2023-06-26T06:31:59;8.13;;;3.28;;
37273;SDS011;23161;51.250;5.554;2023-06-26T06:34:25;8.45;;;3.22;;
37273;SDS011;23161;51.250;5.554;2023-06-26T06:36:51;11.95;;;4.00;;
37273;SDS011;23161;51.250;5.554;2023-06-26T06:39:17;9.70;;;2.72;;
37273;SDS011;23161;51.250;5.554;2023-06-26T06:41:43;8.07;;;3.05;;
37273;SDS011;23161;51.250;5.554;2023-06-26T06:44:09;7.80;;;2.35;;
37273;SDS011;23161;51.250;5.554;2023-06-26T06:46:35;6.57;;;2.00;;
37273;SDS011;23161;51.250;5.554;2023-06-26T06:49:01;9.57;;;2.13;;
37273;SDS011;23161;51.250;5.554;2023-06-26T06:51:28;6.68;;;3.63;;
37273;SDS011;23161;51.250;5.554;2023-06-26T06:53:54;8.73;;;3.42;;
37273;SDS011;23161;51.250;5.554;2023-06-26T06:56:19;7.35;;;2.05;;
37273;SDS011;23161;51.250;5.554;2023-06-26T06:58:45;5.85;;;2.17;;
37273;SDS011;23161;51.250;5.554;2023-06-26T07:01:12;5.55;;;1.95;;
37273;SDS011;23161;51.250;5.554;2023-06-26T07:03:39;7.20;;;2.53;;
37273;SDS011;23161;51.250;5.554;2023-06-26T07:06:05;10.38;;;2.60;;
37273;SDS011;23161;51.250;5.554;2023-06-26T07:08:30;8.27;;;2.72;;
37273;SDS011;23161;51.250;5.554;2023-06-26T07:10:56;4.82;;;2.33;;
37273;SDS011;23161;51.250;5.554;2023-06-26T07:13:23;9.23;;;2.03;;
37273;SDS011;23161;51.250;5.554;2023-06-26T07:15:49;4.22;;;2.10;;
37273;SDS011;23161;51.250;5.554;2023-06-26T07:18:15;8.45;;;2.05;;
37273;SDS011;23161;51.250;5.554;2023-06-26T07:20:41;5.40;;;2.53;;
37273;SDS011;23161;51.250;5.554;2023-06-26T07:23:07;10.10;;;2.25;;
37273;SDS011;23161;51.250;5.554;2023-06-26T07:25:33;4.78;;;2.22;;
37273;SDS011;23161;51.250;5.554;2023-06-26T07:27:59;3.45;;;1.38;;
37273;SDS011;23161;51.250;5.554;2023-06-26T07:30:25;4.93;;;1.98;;
37273;SDS011;23161;51.250;5.554;2023-06-26T07:32:51;3.97;;;1.98;;
37273;SDS011;23161;51.250;5.554;2023-06-26T07:35:17;5.70;;;2.63;;
37273;SDS011;23161;51.250;5.554;2023-06-26T07:37:43;3.17;;;2.17;;
37273;SDS011;23161;51.250;5.554;2023-06-26T07:40:09;6.38;;;1.90;;
37273;SDS011;23161;51.250;5.554;2023-06-26T07:42:35;8.23;;;2.65;;
37273;SDS011;23161;51.250;5.554;2023-06-26T07:45:01;7.63;;;2.45;;
37273;SDS011;23161;51.250;5.554;2023-06-26T07:47:35;6.93;;;2.75;;
37273;SDS011;23161;51.250;5.554;2023-06-26T07:50:01;7.22;;;2.17;;
37273;SDS011;23161;51.250;5.554;2023-06-26T07:52:27;2.15;;;1.42;;
37273;SDS011;23161;51.250;5.554;2023-06-26T07:54:53;5.68;;;1.80;;
37273;SDS011;23161;51.250;5.554;2023-06-26T07:57:19;3.42;;;1.13;;
37273;SDS011;23161;51.250;5.554;2023-06-26T07:59:45;4.15;;;2.22;;
37273;SDS011;23161;51.250;5.554;2023-06-26T08:02:11;5.70;;;2.25;;
37273;SDS011;23161;51.250;5.554;2023-06-26T08:04:37;5.50;;;1.88;;
37273;SDS011;23161;51.250;5.554;2023-06-26T08:07:03;4.53;;;1.90;;
37273;SDS011;23161;51.250;5.554;2023-06-26T08:09:29;5.57;;;1.48;;
37273;SDS011;23161;51.250;5.554;2023-06-26T08:11:55;15.85;;;3.78;;
37273;SDS011;23161;51.250;5.554;2023-06-26T08:14:21;2.88;;;1.30;;
37273;SDS011;23161;51.250;5.554;2023-06-26T08:16:48;10.88;;;3.53;;
37273;SDS011;23161;51.250;5.554;2023-06-26T08:19:14;1.95;;;1.25;;
37273;SDS011;23161;51.250;5.554;2023-06-26T08:21:41;2.67;;;1.38;;
37273;SDS011;23161;51.250;5.554;2023-06-26T08:24:08;6.50;;;1.92;;
37273;SDS011;23161;51.250;5.554;2023-06-26T08:26:34;2.75;;;1.80;;
37273;SDS011;23161;51.250;5.554;2023-06-26T08:29:01;2.45;;;1.58;;
37273;SDS011;23161;51.250;5.554;2023-06-26T08:31:33;6.38;;;1.33;;
37273;SDS011;23161;51.250;5.554;2023-06-26T08:33:59;5.25;;;1.70;;
37273;SDS011;23161;51.250;5.554;2023-06-26T08:36:26;6.57;;;2.03;;
37273;SDS011;23161;51.250;5.554;2023-06-26T08:38:52;3.38;;;1.58;;
37273;SDS011;23161;51.250;5.554;2023-06-26T08:41:18;5.80;;;1.55;;
37273;SDS011;23161;51.250;5.554;2023-06-26T08:43:44;4.57;;;1.40;;
37273;SDS011;23161;51.250;5.554;2023-06-26T08:46:10;3.90;;;1.83;;
37273;SDS011;23161;51.250;5.554;2023-06-26T08:48:36;1.58;;;1.17;;
37273;SDS011;23161;51.250;5.554;2023-06-26T08:51:05;2.38;;;1.63;;
37273;SDS011;23161;51.250;5.554;2023-06-26T08:56:38;3.03;;;1.05;;
37273;SDS011;23161;51.250;5.554;2023-06-26T08:59:08;1.17;;;0.90;;
37273;SDS011;23161;51.250;5.554;2023-06-26T09:01:39;5.18;;;1.58;;
37273;SDS011;23161;51.250;5.554;2023-06-26T09:04:06;3.83;;;1.63;;
37273;SDS011;23161;51.250;5.554;2023-06-26T09:06:33;1.75;;;0.90;;
37273;SDS011;23161;51.250;5.554;2023-06-26T09:08:58;2.38;;;0.75;;
37273;SDS011;23161;51.250;5.554;2023-06-26T09:11:24;6.10;;;1.15;;
37273;SDS011;23161;51.250;5.554;2023-06-26T09:13:50;1.25;;;1.00;;
37273;SDS011;23161;51.250;5.554;2023-06-26T09:16:17;2.47;;;1.02;;
37273;SDS011;23161;51.250;5.554;2023-06-26T09:18:46;1.00;;;0.90;;
37273;SDS011;23161;51.250;5.554;2023-06-26T09:21:12;5.10;;;1.52;;
37273;SDS011;23161;51.250;5.554;2023-06-26T09:23:39;4.93;;;1.25;;
37273;SDS011;23161;51.250;5.554;2023-06-26T09:26:06;3.53;;;1.23;;
37273;SDS011;23161;51.250;5.554;2023-06-26T09:28:32;4.90;;;1.08;;
37273;SDS011;23161;51.250;5.554;2023-06-26T09:31:03;4.25;;;1.73;;
37273;SDS011;23161;51.250;5.554;2023-06-26T09:33:33;4.95;;;1.33;;
37273;SDS011;23161;51.250;5.554;2023-06-26T09:36:01;1.92;;;1.20;;
37273;SDS011;23161;51.250;5.554;2023-06-26T09:38:27;1.52;;;0.70;;
37273;SDS011;23161;51.250;5.554;2023-06-26T09:40:53;1.30;;;1.20;;
37273;SDS011;23161;51.250;5.554;2023-06-26T09:43:19;5.05;;;1.73;;
37273;SDS011;23161;51.250;5.554;2023-06-26T09:45:45;1.52;;;0.88;;
37273;SDS011;23161;51.250;5.554;2023-06-26T09:48:11;2.88;;;1.30;;
37273;SDS011;23161;51.250;5.554;2023-06-26T09:50:41;4.07;;;1.33;;
37273;SDS011;23161;51.250;5.554;2023-06-26T09:53:11;10.05;;;1.35;;
37273;SDS011;23161;51.250;5.554;2023-06-26T09:55:40;1.83;;;0.75;;
37273;SDS011;23161;51.250;5.554;2023-06-26T09:58:10;2.22;;;0.77;;
37273;SDS011;23161;51.250;5.554;2023-06-26T10:00:40;2.63;;;0.82;;
37273;SDS011;23161;51.250;5.554;2023-06-26T10:03:06;2.58;;;1.33;;
37273;SDS011;23161;51.250;5.554;2023-06-26T10:05:33;3.75;;;1.27;;
37273;SDS011;23161;51.250;5.554;2023-06-26T10:08:00;1.17;;;0.93;;
37273;SDS011;23161;51.250;5.554;2023-06-26T10:10:27;1.98;;;1.00;;
37273;SDS011;23161;51.250;5.554;2023-06-26T10:12:59;2.42;;;0.93;;
37273;SDS011;23161;51.250;5.554;2023-06-26T10:15:28;0.65;;;0.47;;
37273;SDS011;23161;51.250;5.554;2023-06-26T10:17:55;3.45;;;0.73;;
37273;SDS011;23161;51.250;5.554;2023-06-26T10:20:22;8.68;;;1.60;;
37273;SDS011;23161;51.250;5.554;2023-06-26T10:22:49;2.63;;;1.35;;
37273;SDS011;23161;51.250;5.554;2023-06-26T10:25:19;4.78;;;1.45;;
37273;SDS011;23161;51.250;5.554;2023-06-26T10:27:53;5.30;;;1.08;;
37273;SDS011;23161;51.250;5.554;2023-06-26T10:30:24;1.02;;;0.90;;
37273;SDS011;23161;51.250;5.554;2023-06-26T10:32:53;2.60;;;0.70;;
37273;SDS011;23161;51.250;5.554;2023-06-26T10:35:20;1.92;;;0.98;;
37273;SDS011;23161;51.250;5.554;2023-06-26T10:37:48;5.00;;;0.90;;
37273;SDS011;23161;51.250;5.554;2023-06-26T10:40:20;2.85;;;0.80;;
37273;SDS011;23161;51.250;5.554;2023-06-26T10:43:05;2.13;;;0.90;;
37273;SDS011;23161;51.250;5.554;2023-06-26T10:45:33;33.50;;;6.57;;
37273;SDS011;23161;51.250;5.554;2023-06-26T10:48:00;1.80;;;0.60;;
37273;SDS011;23161;51.250;5.554;2023-06-26T10:50:27;2.25;;;0.90;;
37273;SDS011;23161;51.250;5.554;2023-06-26T10:53:15;6.13;;;0.73;;
37273;SDS011;23161;51.250;5.554;2023-06-26T10:55:50;3.90;;;1.10;;
37273;SDS011;23161;51.250;5.554;2023-06-26T11:03:37;4.72;;;0.93;;
37273;SDS011;23161;51.250;5.554;2023-06-26T11:06:10;2.60;;;0.85;;
37273;SDS011;23161;51.250;5.554;2023-06-26T11:14:17;3.95;;;1.52;;
37273;SDS011;23161;51.250;5.554;2023-06-26T11:16:44;0.77;;;0.75;;
37273;SDS011;23161;51.250;5.554;2023-06-26T11:19:11;1.60;;;0.85;;
37273;SDS011;23161;51.250;5.554;2023-06-26T11:21:38;1.75;;;1.00;;
37273;SDS011;23161;51.250;5.554;2023-06-26T11:24:04;2.10;;;1.20;;
37273;SDS011;23161;51.250;5.554;2023-06-26T11:26:41;2.15;;;0.88;;
37273;SDS011;23161;51.250;5.554;2023-06-26T11:29:08;2.55;;;0.65;;
37273;SDS011;23161;51.250;5.554;2023-06-26T11:31:35;2.60;;;1.20;;
37273;SDS011;23161;51.250;5.554;2023-06-26T11:34:04;3.38;;;1.15;;
37273;SDS011;23161;51.250;5.554;2023-06-26T11:36:37;2.40;;;1.08;;
37273;SDS011;23161;51.250;5.554;2023-06-26T11:39:04;3.92;;;1.02;;
37273;SDS011;23161;51.250;5.554;2023-06-26T11:41:31;5.43;;;0.77;;
37273;SDS011;23161;51.250;5.554;2023-06-26T11:44:02;1.35;;;0.90;;
37273;SDS011;23161;51.250;5.554;2023-06-26T11:46:29;1.95;;;0.75;;
37273;SDS011;23161;51.250;5.554;2023-06-26T11:48:55;3.38;;;0.95;;
37273;SDS011;23161;51.250;5.554;2023-06-26T11:51:21;3.28;;;1.13;;
37273;SDS011;23161;51.250;5.554;2023-06-26T11:53:47;2.35;;;0.90;;
37273;SDS011;23161;51.250;5.554;2023-06-26T11:56:15;2.80;;;0.85;;
37273;SDS011;23161;51.250;5.554;2023-06-26T12:04:03;3.42;;;1.40;;
37273;SDS011;23161;51.250;5.554;2023-06-26T12:06:31;1.45;;;0.90;;
37273;SDS011;23161;51.250;5.554;2023-06-26T12:08:59;1.38;;;0.88;;
37273;SDS011;23161;51.250;5.554;2023-06-26T12:11:28;5.95;;;0.90;;
37273;SDS011;23161;51.250;5.554;2023-06-26T12:13:55;2.60;;;0.80;;
37273;SDS011;23161;51.250;5.554;2023-06-26T12:16:21;2.92;;;1.25;;
37273;SDS011;23161;51.250;5.554;2023-06-26T12:18:47;1.98;;;0.93;;
37273;SDS011;23161;51.250;5.554;2023-06-26T12:24:10;3.13;;;0.90;;
37273;SDS011;23161;51.250;5.554;2023-06-26T12:26:40;2.85;;;0.85;;
37273;SDS011;23161;51.250;5.554;2023-06-26T12:29:09;0.80;;;0.80;;
37273;SDS011;23161;51.250;5.554;2023-06-26T12:31:39;3.97;;;1.02;;
37273;SDS011;23161;51.250;5.554;2023-06-26T12:34:10;1.85;;;0.57;;
37273;SDS011;23161;51.250;5.554;2023-06-26T12:36:45;0.65;;;0.65;;
37273;SDS011;23161;51.250;5.554;2023-06-26T12:39:20;2.30;;;0.80;;
37273;SDS011;23161;51.250;5.554;2023-06-26T12:41:46;1.05;;;0.50;;
37273;SDS011;23161;51.250;5.554;2023-06-26T12:44:20;2.95;;;0.63;;
37273;SDS011;23161;51.250;5.554;2023-06-26T12:46:47;2.78;;;1.15;;
37273;SDS011;23161;51.250;5.554;2023-06-26T12:49:19;9.50;;;0.75;;
37273;SDS011;23161;51.250;5.554;2023-06-26T12:51:45;2.75;;;0.88;;
37273;SDS011;23161;51.250;5.554;2023-06-26T12:54:11;4.20;;;1.35;;
37273;SDS011;23161;51.250;5.554;2023-06-26T12:56:37;5.20;;;1.05;;
37273;SDS011;23161;51.250;5.554;2023-06-26T12:59:03;0.70;;;0.60;;
37273;SDS011;23161;51.250;5.554;2023-06-26T13:01:28;5.20;;;1.52;;
37273;SDS011;23161;51.250;5.554;2023-06-26T13:03:54;3.13;;;0.65;;
37273;SDS011;23161;51.250;5.554;2023-06-26T13:06:20;4.35;;;0.95;;
37273;SDS011;23161;51.250;5.554;2023-06-26T13:08:46;4.22;;;1.95;;
37273;SDS011;23161;51.250;5.554;2023-06-26T13:11:12;4.93;;;1.45;;
37273;SDS011;23161;51.250;5.554;2023-06-26T13:13:38;1.58;;;0.63;;
37273;SDS011;23161;51.250;5.554;2023-06-26T13:16:04;2.17;;;1.25;;
37273;SDS011;23161;51.250;5.554;2023-06-26T13:18:31;8.02;;;1.42;;
37273;SDS011;23161;51.250;5.554;2023-06-26T13:20:56;4.63;;;1.20;;
37273;SDS011;23161;51.250;5.554;2023-06-26T13:23:22;4.30;;;0.95;;
37273;SDS011;23161;51.250;5.554;2023-06-26T13:25:48;2.92;;;1.30;;
37273;SDS011;23161;51.250;5.554;2023-06-26T13:28:15;1.70;;;0.73;;
37273;SDS011;23161;51.250;5.554;2023-06-26T13:30:41;7.70;;;1.08;;
37273;SDS011;23161;51.250;5.554;2023-06-26T13:33:07;1.15;;;0.60;;
37273;SDS011;23161;51.250;5.554;2023-06-26T13:35:33;4.45;;;1.10;;
37273;SDS011;23161;51.250;5.554;2023-06-26T13:37:58;4.55;;;0.90;;
37273;SDS011;23161;51.250;5.554;2023-06-26T13:40:24;0.60;;;0.40;;
37273;SDS011;23161;51.250;5.554;2023-06-26T13:42:50;2.33;;;1.35;;
37273;SDS011;23161;51.250;5.554;2023-06-26T13:45:16;2.78;;;1.58;;
37273;SDS011;23161;51.250;5.554;2023-06-26T13:47:42;1.67;;;1.17;;
37273;SDS011;23161;51.250;5.554;2023-06-26T13:50:08;1.23;;;0.93;;
37273;SDS011;23161;51.250;5.554;2023-06-26T13:52:35;1.85;;;1.00;;
37273;SDS011;23161;51.250;5.554;2023-06-26T13:55:01;3.30;;;1.45;;
37273;SDS011;23161;51.250;5.554;2023-06-26T13:57:29;1.30;;;0.85;;
37273;SDS011;23161;51.250;5.554;2023-06-26T13:59:56;3.53;;;0.98;;
37273;SDS011;23161;51.250;5.554;2023-06-26T14:02:22;2.65;;;0.50;;
37273;SDS011;23161;51.250;5.554;2023-06-26T14:04:48;1.80;;;0.80;;
37273;SDS011;23161;51.250;5.554;2023-06-26T14:07:14;1.88;;;0.77;;
37273;SDS011;23161;51.250;5.554;2023-06-26T14:09:40;3.63;;;1.05;;
37273;SDS011;23161;51.250;5.554;2023-06-26T14:12:06;2.53;;;1.20;;
37273;SDS011;23161;51.250;5.554;2023-06-26T14:14:33;2.47;;;0.55;;
37273;SDS011;23161;51.250;5.554;2023-06-26T14:16:58;2.22;;;0.85;;
37273;SDS011;23161;51.250;5.554;2023-06-26T14:19:25;2.60;;;1.00;;
37273;SDS011;23161;51.250;5.554;2023-06-26T14:21:51;5.43;;;1.48;;
37273;SDS011;23161;51.250;5.554;2023-06-26T14:24:17;2.40;;;0.75;;
37273;SDS011;23161;51.250;5.554;2023-06-26T14:26:43;4.53;;;1.63;;
37273;SDS011;23161;51.250;5.554;2023-06-26T14:29:09;2.55;;;1.23;;
37273;SDS011;23161;51.250;5.554;2023-06-26T14:31:34;9.05;;;1.05;;
37273;SDS011;23161;51.250;5.554;2023-06-26T14:34:00;1.27;;;1.00;;
37273;SDS011;23161;51.250;5.554;2023-06-26T14:36:28;1.38;;;0.80;;
37273;SDS011;23161;51.250;5.554;2023-06-26T14:38:56;2.22;;;0.95;;
37273;SDS011;23161;51.250;5.554;2023-06-26T14:41:23;1.23;;;0.80;;
37273;SDS011;23161;51.250;5.554;2023-06-26T14:43:52;1.40;;;0.93;;
37273;SDS011;23161;51.250;5.554;2023-06-26T14:46:18;0.93;;;0.80;;
37273;SDS011;23161;51.250;5.554;2023-06-26T14:48:44;2.63;;;1.27;;
37273;SDS011;23161;51.250;5.554;2023-06-26T14:51:11;0.73;;;0.43;;
37273;SDS011;23161;51.250;5.554;2023-06-26T14:53:36;1.70;;;1.17;;
37273;SDS011;23161;51.250;5.554;2023-06-26T14:56:02;2.80;;;1.38;;
37273;SDS011;23161;51.250;5.554;2023-06-26T14:58:30;2.80;;;1.30;;
37273;SDS011;23161;51.250;5.554;2023-06-26T15:00:56;1.85;;;0.75;;
37273;SDS011;23161;51.250;5.554;2023-06-26T15:03:22;1.27;;;1.10;;
37273;SDS011;23161;51.250;5.554;2023-06-26T15:05:48;1.13;;;0.77;;
37273;SDS011;23161;51.250;5.554;2023-06-26T15:08:14;4.40;;;1.80;;
37273;SDS011;23161;51.250;5.554;2023-06-26T15:10:40;3.42;;;0.68;;
37273;SDS011;23161;51.250;5.554;2023-06-26T15:13:05;0.98;;;0.38;;
37273;SDS011;23161;51.250;5.554;2023-06-26T15:15:32;2.95;;;1.27;;